sensor_id;sensor_type;location;lat;lon;timestamp;pressure;altitude;pressure_sealevel;temperature;humidity
22181;BME280;11256;50.830;12.834;2023-01-26T00:02:58;98221.91;;;2.01;83.94
22181;BME280;11256;50.830;12.834;2023-01-26T00:07:58;98217.59;;;2.00;84.12
22181;BME280;11256;50.830;12.834;2023-01-26T00:12:59;98197.28;;;1.92;83.67
22181;BME280;11256;50.830;12.834;2023-01-26T00:17:59;98202.81;;;1.97;84.08
22181;BME280;11256;50.830;12.834;2023-01-26T00:23:00;98204.06;;;1.95;84.02
22181;BME280;11256;50.830;12.834;2023-01-26T00:28:00;98195.47;;;1.93;84.08
22181;BME280;11256;50.830;12.834;2023-01-26T00:33:01;98175.97;;;1.86;84.08
22181;BME280;11256;50.830;12.834;2023-01-26T00:38:01;98183.53;;;1.89;84.09
22181;BME280;11256;50.830;12.834;2023-01-26T00:43:02;98185.19;;;1.90;83.97
22181;BME280;11256;50.830;12.834;2023-01-26T00:48:02;98180.06;;;1.88;84.40
22181;BME280;11256;50.830;12.834;2023-01-26T00:53:03;98172.91;;;1.82;83.77
22181;BME280;11256;50.830;12.834;2023-01-26T00:58:05;98172.47;;;1.85;84.48
22181;BME280;11256;50.830;12.834;2023-01-26T01:03:06;98181.31;;;1.86;84.12
22181;BME280;11256;50.830;12.834;2023-01-26T01:08:06;98174.16;;;1.80;84.19
22181;BME280;11256;50.830;12.834;2023-01-26T01:13:08;98191.38;;;1.84;84.10
22181;BME280;11256;50.830;12.834;2023-01-26T01:18:08;98175.16;;;1.79;83.83
22181;BME280;11256;50.830;12.834;2023-01-26T01:23:09;98182.94;;;1.87;84.06
22181;BME280;11256;50.830;12.834;2023-01-26T01:28:09;98183.53;;;1.89;84.08
22181;BME280;11256;50.830;12.834;2023-01-26T01:33:09;98172.44;;;1.92;83.98
22181;BME280;11256;50.830;12.834;2023-01-26T01:38:09;98181.66;;;1.96;83.54
22181;BME280;11256;50.830;12.834;2023-01-26T01:43:10;98160.94;;;1.91;83.07
22181;BME280;11256;50.830;12.834;2023-01-26T01:48:24;98178.56;;;1.99;82.82
22181;BME280;11256;50.830;12.834;2023-01-26T01:53:31;98159.28;;;1.97;83.30
22181;BME280;11256;50.830;12.834;2023-01-26T01:58:35;98151.25;;;1.97;82.99
22181;BME280;11256;50.830;12.834;2023-01-26T02:03:38;98134.66;;;1.88;82.67
22181;BME280;11256;50.830;12.834;2023-01-26T02:13:43;98124.53;;;1.97;82.02
22181;BME280;11256;50.830;12.834;2023-01-26T02:18:45;98130.47;;;1.99;82.44
22181;BME280;11256;50.830;12.834;2023-01-26T02:23:53;98117.53;;;1.96;82.28
22181;BME280;11256;50.830;12.834;2023-01-26T02:28:57;98103.41;;;1.89;82.24
22181;BME280;11256;50.830;12.834;2023-01-26T02:33:59;98107.13;;;1.88;82.31
22181;BME280;11256;50.830;12.834;2023-01-26T02:39:37;98089.06;;;1.83;82.25
22181;BME280;11256;50.830;12.834;2023-01-26T02:44:41;98075.16;;;1.75;82.31
22181;BME280;11256;50.830;12.834;2023-01-26T02:49:44;98074.13;;;1.76;82.94
22181;BME280;11256;50.830;12.834;2023-01-26T02:54:48;98065.72;;;1.72;83.01
22181;BME280;11256;50.830;12.834;2023-01-26T03:00:10;98071.06;;;1.72;82.83
22181;BME280;11256;50.830;12.834;2023-01-26T03:05:11;98048.69;;;1.67;83.05
22181;BME280;11256;50.830;12.834;2023-01-26T03:10:11;98048.91;;;1.65;82.77
22181;BME280;11256;50.830;12.834;2023-01-26T03:15:12;98045.84;;;1.62;82.81
22181;BME280;11256;50.830;12.834;2023-01-26T03:20:31;98046.06;;;1.60;83.17
22181;BME280;11256;50.830;12.834;2023-01-26T03:25:50;98042.41;;;1.55;82.84
22181;BME280;11256;50.830;12.834;2023-01-26T03:31:09;98044.41;;;1.59;83.23
22181;BME280;11256;50.830;12.834;2023-01-26T03:36:10;98039.34;;;1.51;83.65
22181;BME280;11256;50.830;12.834;2023-01-26T03:41:10;98045.25;;;1.60;82.82
22181;BME280;11256;50.830;12.834;2023-01-26T03:46:30;98053.09;;;1.55;82.75
22181;BME280;11256;50.830;12.834;2023-01-26T03:51:49;98040.34;;;1.57;83.27
22181;BME280;11256;50.830;12.834;2023-01-26T03:57:08;98039.53;;;1.56;83.01
22181;BME280;11256;50.830;12.834;2023-01-26T04:02:11;98020.28;;;1.48;83.27
22181;BME280;11256;50.830;12.834;2023-01-26T04:07:30;98030.69;;;1.56;82.96
22181;BME280;11256;50.830;12.834;2023-01-26T04:12:49;98031.13;;;1.53;83.18
22181;BME280;11256;50.830;12.834;2023-01-26T04:18:09;98022.31;;;1.46;83.26
22181;BME280;11256;50.830;12.834;2023-01-26T04:23:29;98021.13;;;1.42;83.71
22181;BME280;11256;50.830;12.834;2023-01-26T04:28:29;98033.00;;;1.46;83.25
22181;BME280;11256;50.830;12.834;2023-01-26T04:33:30;98029.75;;;1.44;83.35
22181;BME280;11256;50.830;12.834;2023-01-26T04:38:30;98008.41;;;1.37;83.46
22181;BME280;11256;50.830;12.834;2023-01-26T04:43:31;98019.06;;;1.44;83.73
22181;BME280;11256;50.830;12.834;2023-01-26T04:48:32;98025.81;;;1.46;83.52
22181;BME280;11256;50.830;12.834;2023-01-26T04:53:33;98023.38;;;1.45;83.60
22181;BME280;11256;50.830;12.834;2023-01-26T04:58:34;98012.47;;;1.46;83.23
22181;BME280;11256;50.830;12.834;2023-01-26T05:03:34;98020.28;;;1.48;83.10
22181;BME280;11256;50.830;12.834;2023-01-26T05:08:36;98012.91;;;1.43;83.04
22181;BME280;11256;50.830;12.834;2023-01-26T05:13:37;98020.28;;;1.48;83.26
22181;BME280;11256;50.830;12.834;2023-01-26T05:18:48;98024.59;;;1.49;83.05
22181;BME280;11256;50.830;12.834;2023-01-26T05:24:12;98031.34;;;1.51;83.17
22181;BME280;11256;50.830;12.834;2023-01-26T05:29:34;98016.56;;;1.49;82.74
22181;BME280;11256;50.830;12.834;2023-01-26T05:34:35;98019.91;;;1.44;82.47
22181;BME280;11256;50.830;12.834;2023-01-26T05:39:37;98012.09;;;1.43;82.89
22181;BME280;11256;50.830;12.834;2023-01-26T05:44:39;98021.09;;;1.48;82.76
22181;BME280;11256;50.830;12.834;2023-01-26T05:49:47;98027.66;;;1.46;82.83
22181;BME280;11256;50.830;12.834;2023-01-26T05:54:52;98030.34;;;1.46;82.83
22181;BME280;11256;50.830;12.834;2023-01-26T05:59:52;98024.41;;;1.44;83.07
22181;BME280;11256;50.830;12.834;2023-01-26T06:04:53;98020.72;;;1.38;82.71
22181;BME280;11256;50.830;12.834;2023-01-26T06:09:54;98034.03;;;1.45;82.67
22181;BME280;11256;50.830;12.834;2023-01-26T06:15:13;98040.41;;;1.44;82.64
22181;BME280;11256;50.830;12.834;2023-01-26T06:20:17;98040.44;;;1.37;82.53
22181;BME280;11256;50.830;12.834;2023-01-26T06:25:27;98040.06;;;1.34;83.26
22181;BME280;11256;50.830;12.834;2023-01-26T06:30:28;98034.72;;;1.34;82.90
22181;BME280;11256;50.830;12.834;2023-01-26T06:35:33;98033.09;;;1.33;83.25
22181;BME280;11256;50.830;12.834;2023-01-26T06:40:36;98032.50;;;1.31;83.01
22181;BME280;11256;50.830;12.834;2023-01-26T06:45:37;98027.84;;;1.20;82.74
22181;BME280;11256;50.830;12.834;2023-01-26T06:50:38;98025.31;;;1.25;83.11
22181;BME280;11256;50.830;12.834;2023-01-26T06:55:39;98026.78;;;1.21;82.74
22181;BME280;11256;50.830;12.834;2023-01-26T07:01:05;98027.38;;;1.23;82.70
22181;BME280;11256;50.830;12.834;2023-01-26T07:06:08;98035.56;;;1.28;82.80
22181;BME280;11256;50.830;12.834;2023-01-26T07:11:12;98039.25;;;1.33;82.64
22181;BME280;11256;50.830;12.834;2023-01-26T07:16:14;98045.00;;;1.30;82.78
22181;BME280;11256;50.830;12.834;2023-01-26T07:21:17;98034.75;;;1.27;82.64
22181;BME280;11256;50.830;12.834;2023-01-26T07:26:18;98036.84;;;1.19;82.58
22181;BME280;11256;50.830;12.834;2023-01-26T07:31:18;98034.34;;;1.24;83.01
22181;BME280;11256;50.830;12.834;2023-01-26T07:36:18;98029.84;;;1.24;83.06
22181;BME280;11256;50.830;12.834;2023-01-26T07:41:19;98029.66;;;1.26;82.98
22181;BME280;11256;50.830;12.834;2023-01-26T07:46:19;98032.91;;;1.28;82.92
22181;BME280;11256;50.830;12.834;2023-01-26T07:51:19;98040.91;;;1.28;83.25
22181;BME280;11256;50.830;12.834;2023-01-26T07:56:20;98033.50;;;1.30;82.83
22181;BME280;11256;50.830;12.834;2023-01-26T08:01:20;98024.53;;;1.18;83.17
22181;BME280;11256;50.830;12.834;2023-01-26T08:06:21;98018.78;;;1.21;82.88
22181;BME280;11256;50.830;12.834;2023-01-26T08:11:22;98038.84;;;1.30;82.91
22181;BME280;11256;50.830;12.834;2023-01-26T08:16:25;98037.59;;;1.32;82.39
22181;BME280;11256;50.830;12.834;2023-01-26T08:21:25;98029.19;;;1.29;82.56
22181;BME280;11256;50.830;12.834;2023-01-26T08:26:26;98026.72;;;1.34;82.67
22181;BME280;11256;50.830;12.834;2023-01-26T08:31:26;98023.63;;;1.37;82.77
22181;BME280;11256;50.830;12.834;2023-01-26T08:36:28;98033.47;;;1.36;82.75
22181;BME280;11256;50.830;12.834;2023-01-26T08:41:28;98028.53;;;1.40;82.59
22181;BME280;11256;50.830;12.834;2023-01-26T08:46:29;98029.16;;;1.42;82.23
22181;BME280;11256;50.830;12.834;2023-01-26T08:51:29;98026.63;;;1.47;82.40
22181;BME280;11256;50.830;12.834;2023-01-26T08:56:29;98018.00;;;1.51;81.98
22181;BME280;11256;50.830;12.834;2023-01-26T09:01:30;98028.84;;;1.56;82.04
22181;BME280;11256;50.830;12.834;2023-01-26T09:06:30;98032.09;;;1.58;81.65
22181;BME280;11256;50.830;12.834;2023-01-26T09:11:32;98042.75;;;1.65;82.07
22181;BME280;11256;50.830;12.834;2023-01-26T09:16:32;98038.19;;;1.72;81.66
22181;BME280;11256;50.830;12.834;2023-01-26T09:21:32;98034.47;;;1.73;81.32
22181;BME280;11256;50.830;12.834;2023-01-26T09:26:33;98025.75;;;1.84;81.26
22181;BME280;11256;50.830;12.834;2023-01-26T09:31:33;98026.09;;;1.94;81.30
22181;BME280;11256;50.830;12.834;2023-01-26T09:36:33;98015.88;;;1.91;80.42
22181;BME280;11256;50.830;12.834;2023-01-26T09:41:48;98037.13;;;2.04;80.54
22181;BME280;11256;50.830;12.834;2023-01-26T09:47:01;98028.94;;;1.99;80.78
22181;BME280;11256;50.830;12.834;2023-01-26T09:52:15;98042.63;;;2.09;80.85
22181;BME280;11256;50.830;12.834;2023-01-26T10:08:18;98019.34;;;2.16;80.17
22181;BME280;11256;50.830;12.834;2023-01-26T10:13:21;98036.53;;;2.26;79.91
22181;BME280;11256;50.830;12.834;2023-01-26T10:18:26;98033.63;;;2.28;79.85
22181;BME280;11256;50.830;12.834;2023-01-26T10:23:29;98032.16;;;2.32;79.99
22181;BME280;11256;50.830;12.834;2023-01-26T10:28:32;98021.47;;;2.32;79.86
22181;BME280;11256;50.830;12.834;2023-01-26T10:33:36;98025.31;;;2.36;79.58
22181;BME280;11256;50.830;12.834;2023-01-26T10:43:41;98010.97;;;2.30;79.72
22181;BME280;11256;50.830;12.834;2023-01-26T10:48:50;98011.75;;;2.37;80.15
22181;BME280;11256;50.830;12.834;2023-01-26T10:59:38;98016.06;;;2.38;79.95
22181;BME280;11256;50.830;12.834;2023-01-26T11:05:00;98019.09;;;2.42;79.88
22181;BME280;11256;50.830;12.834;2023-01-26T11:10:26;98010.50;;;2.40;79.55
22181;BME280;11256;50.830;12.834;2023-01-26T11:15:28;98024.44;;;2.42;79.80
22181;BME280;11256;50.830;12.834;2023-01-26T11:36:40;98010.03;;;2.43;79.82
22181;BME280;11256;50.830;12.834;2023-01-26T11:42:10;97990.28;;;2.44;79.78
22181;BME280;11256;50.830;12.834;2023-01-26T11:52:53;97987.16;;;2.47;79.79
22181;BME280;11256;50.830;12.834;2023-01-26T12:03:17;97966.06;;;2.39;79.38
22181;BME280;11256;50.830;12.834;2023-01-26T12:08:38;97968.44;;;2.47;79.28
22181;BME280;11256;50.830;12.834;2023-01-26T12:13:42;97959.81;;;2.45;79.03
22181;BME280;11256;50.830;12.834;2023-01-26T12:18:56;97939.84;;;2.47;79.36
22181;BME280;11256;50.830;12.834;2023-01-26T12:24:02;97930.41;;;2.45;79.06
22181;BME280;11256;50.830;12.834;2023-01-26T12:29:33;97923.00;;;2.47;79.26
22181;BME280;11256;50.830;12.834;2023-01-26T12:34:37;97917.50;;;2.42;79.11
22181;BME280;11256;50.830;12.834;2023-01-26T12:40:04;97912.16;;;2.42;78.94
22181;BME280;11256;50.830;12.834;2023-01-26T12:45:11;97903.56;;;2.40;79.12
22181;BME280;11256;50.830;12.834;2023-01-26T12:50:37;97908.00;;;2.46;78.96
22181;BME280;11256;50.830;12.834;2023-01-26T12:55:45;97906.22;;;2.40;78.92
22181;BME280;11256;50.830;12.834;2023-01-26T13:00:52;97908.22;;;2.44;78.87
22181;BME280;11256;50.830;12.834;2023-01-26T13:06:02;97908.44;;;2.43;78.66
22181;BME280;11256;50.830;12.834;2023-01-26T13:11:39;97908.44;;;2.43;78.99
22181;BME280;11256;50.830;12.834;2023-01-26T13:16:39;97912.16;;;2.42;78.70
22181;BME280;11256;50.830;12.834;2023-01-26T13:21:42;97891.38;;;2.26;78.87
22181;BME280;11256;50.830;12.834;2023-01-26T13:26:47;97914.25;;;2.40;78.88
22181;BME280;11256;50.830;12.834;2023-01-26T13:31:48;97899.53;;;2.31;78.45
22181;BME280;11256;50.830;12.834;2023-01-26T13:36:49;97905.81;;;2.36;78.78
22181;BME280;11256;50.830;12.834;2023-01-26T13:41:50;97910.00;;;2.32;78.21
22181;BME280;11256;50.830;12.834;2023-01-26T13:46:56;97919.66;;;2.33;78.40
22181;BME280;11256;50.830;12.834;2023-01-26T13:51:59;97915.94;;;2.34;78.51
22181;BME280;11256;50.830;12.834;2023-01-26T13:57:02;97900.56;;;2.30;78.56
22181;BME280;11256;50.830;12.834;2023-01-26T14:02:19;97894.63;;;2.28;78.71
22181;BME280;11256;50.830;12.834;2023-01-26T14:07:27;97899.53;;;2.31;78.41
22181;BME280;11256;50.830;12.834;2023-01-26T14:12:32;97905.47;;;2.33;78.42
22181;BME280;11256;50.830;12.834;2023-01-26T14:17:45;97902.19;;;2.31;78.49
22181;BME280;11256;50.830;12.834;2023-01-26T14:28:12;97900.34;;;2.31;78.29
22181;BME280;11256;50.830;12.834;2023-01-26T14:33:15;97901.38;;;2.30;78.38
22181;BME280;11256;50.830;12.834;2023-01-26T14:38:16;97891.78;;;2.23;78.90
22181;BME280;11256;50.830;12.834;2023-01-26T14:43:19;97903.69;;;2.27;79.04
22181;BME280;11256;50.830;12.834;2023-01-26T14:48:23;97901.31;;;2.19;78.38
22181;BME280;11256;50.830;12.834;2023-01-26T14:53:25;97907.47;;;2.19;78.23
22181;BME280;11256;50.830;12.834;2023-01-26T14:58:28;97916.31;;;2.20;78.62
22181;BME280;11256;50.830;12.834;2023-01-26T15:03:34;97924.38;;;2.13;78.33
22181;BME280;11256;50.830;12.834;2023-01-26T15:08:37;97914.94;;;2.11;78.49
22181;BME280;11256;50.830;12.834;2023-01-26T15:13:39;97913.31;;;2.10;78.55
22181;BME280;11256;50.830;12.834;2023-01-26T15:18:40;97926.09;;;2.08;79.06
22181;BME280;11256;50.830;12.834;2023-01-26T15:23:43;97917.47;;;2.06;78.66
22181;BME280;11256;50.830;12.834;2023-01-26T15:28:49;97926.53;;;2.05;78.69
22181;BME280;11256;50.830;12.834;2023-01-26T15:33:52;97930.66;;;2.01;78.35
22181;BME280;11256;50.830;12.834;2023-01-26T15:38:58;97920.44;;;1.98;78.65
22181;BME280;11256;50.830;12.834;2023-01-26T15:43:59;97933.19;;;1.96;78.61
22181;BME280;11256;50.830;12.834;2023-01-26T15:48:59;97923.38;;;1.90;78.77
22181;BME280;11256;50.830;12.834;2023-01-26T15:53:59;97917.13;;;1.78;78.54
22181;BME280;11256;50.830;12.834;2023-01-26T15:58:59;97930.84;;;1.81;78.85
22181;BME280;11256;50.830;12.834;2023-01-26T16:04:00;97941.16;;;1.78;79.11
22181;BME280;11256;50.830;12.834;2023-01-26T16:09:00;97924.41;;;1.71;78.92
22181;BME280;11256;50.830;12.834;2023-01-26T16:14:01;97934.50;;;1.69;79.13
22181;BME280;11256;50.830;12.834;2023-01-26T16:19:02;97930.16;;;1.68;78.96
22181;BME280;11256;50.830;12.834;2023-01-26T16:24:02;97932.19;;;1.72;79.16
22181;BME280;11256;50.830;12.834;2023-01-26T16:29:03;97923.50;;;1.77;78.06
22181;BME280;11256;50.830;12.834;2023-01-26T16:34:03;97937.91;;;1.76;78.30
22181;BME280;11256;50.830;12.834;2023-01-26T16:39:03;97939.66;;;1.64;78.66
22181;BME280;11256;50.830;12.834;2023-01-26T16:44:12;97941.88;;;1.67;78.53
22181;BME280;11256;50.830;12.834;2023-01-26T16:49:13;97934.75;;;1.61;78.25
22181;BME280;11256;50.830;12.834;2023-01-26T16:54:14;97944.16;;;1.63;78.67
22181;BME280;11256;50.830;12.834;2023-01-26T16:59:15;97942.16;;;1.59;78.82
22181;BME280;11256;50.830;12.834;2023-01-26T17:04:15;97946.78;;;1.45;78.59
22181;BME280;11256;50.830;12.834;2023-01-26T17:09:15;97929.34;;;1.43;78.74
22181;BME280;11256;50.830;12.834;2023-01-26T17:14:16;97943.03;;;1.53;78.38
22181;BME280;11256;50.830;12.834;2023-01-26T17:19:16;97955.34;;;1.54;77.84
22181;BME280;11256;50.830;12.834;2023-01-26T17:24:16;97926.06;;;1.41;78.21
22181;BME280;11256;50.830;12.834;2023-01-26T17:29:16;97952.91;;;1.46;78.34
22181;BME280;11256;50.830;12.834;2023-01-26T17:34:17;97954.16;;;1.43;78.41
22181;BME280;11256;50.830;12.834;2023-01-26T17:39:19;97962.44;;;1.35;78.70
22181;BME280;11256;50.830;12.834;2023-01-26T17:44:19;97973.53;;;1.32;78.72
22181;BME280;11256;50.830;12.834;2023-01-26T17:49:20;97940.38;;;1.22;78.60
22181;BME280;11256;50.830;12.834;2023-01-26T17:54:20;97964.56;;;1.27;78.32
22181;BME280;11256;50.830;12.834;2023-01-26T17:59:21;97951.81;;;1.29;78.50
22181;BME280;11256;50.830;12.834;2023-01-26T18:04:21;97962.75;;;1.21;78.41
22181;BME280;11256;50.830;12.834;2023-01-26T18:09:24;97949.28;;;1.09;78.61
22181;BME280;11256;50.830;12.834;2023-01-26T18:14:25;97969.53;;;1.17;79.06
22181;BME280;11256;50.830;12.834;2023-01-26T18:19:25;97963.84;;;1.07;78.80
22181;BME280;11256;50.830;12.834;2023-01-26T18:24:25;97975.94;;;1.09;79.12
22181;BME280;11256;50.830;12.834;2023-01-26T18:29:26;97974.97;;;1.04;79.11
22181;BME280;11256;50.830;12.834;2023-01-26T18:34:26;97987.31;;;0.92;79.37
22181;BME280;11256;50.830;12.834;2023-01-26T18:39:26;97986.53;;;0.85;80.01
22181;BME280;11256;50.830;12.834;2023-01-26T18:44:28;97979.13;;;0.87;79.70
22181;BME280;11256;50.830;12.834;2023-01-26T18:49:28;97975.06;;;0.84;80.20
22181;BME280;11256;50.830;12.834;2023-01-26T18:54:28;97982.03;;;0.79;80.32
22181;BME280;11256;50.830;12.834;2023-01-26T18:59:29;97993.09;;;0.82;79.96
22181;BME280;11256;50.830;12.834;2023-01-26T19:04:30;97981.66;;;0.75;80.57
22181;BME280;11256;50.830;12.834;2023-01-26T19:09:30;97978.81;;;0.70;80.67
22181;BME280;11256;50.830;12.834;2023-01-26T19:14:33;97988.63;;;0.70;80.76
22181;BME280;11256;50.830;12.834;2023-01-26T19:19:34;97987.00;;;0.69;80.83
22181;BME280;11256;50.830;12.834;2023-01-26T19:24:34;97979.44;;;0.66;80.70
22181;BME280;11256;50.830;12.834;2023-01-26T19:29:35;97980.69;;;0.63;81.14
22181;BME280;11256;50.830;12.834;2023-01-26T19:34:35;97979.25;;;0.61;80.99
22181;BME280;11256;50.830;12.834;2023-01-26T19:39:35;97981.72;;;0.56;81.29
22181;BME280;11256;50.830;12.834;2023-01-26T19:44:36;97977.63;;;0.60;81.37
22181;BME280;11256;50.830;12.834;2023-01-26T19:49:37;97975.97;;;0.59;81.05
22181;BME280;11256;50.830;12.834;2023-01-26T19:54:38;97971.28;;;0.54;81.59
22181;BME280;11256;50.830;12.834;2023-01-26T19:59:38;97968.63;;;0.48;81.30
22181;BME280;11256;50.830;12.834;2023-01-26T20:04:38;97974.34;;;0.51;81.50
22181;BME280;11256;50.830;12.834;2023-01-26T20:09:39;97985.84;;;0.52;81.56
22181;BME280;11256;50.830;12.834;2023-01-26T20:14:39;97979.91;;;0.50;81.42
22181;BME280;11256;50.830;12.834;2023-01-26T20:19:41;97971.09;;;0.43;81.43
22181;BME280;11256;50.830;12.834;2023-01-26T20:24:41;97982.97;;;0.47;81.64
22181;BME280;11256;50.830;12.834;2023-01-26T20:29:41;97992.00;;;0.46;81.49
22181;BME280;11256;50.830;12.834;2023-01-26T20:34:42;97962.13;;;0.31;81.76
22181;BME280;11256;50.830;12.834;2023-01-26T20:39:42;97978.50;;;0.41;81.75
22181;BME280;11256;50.830;12.834;2023-01-26T20:44:44;97979.53;;;0.40;81.72
22181;BME280;11256;50.830;12.834;2023-01-26T20:49:44;97973.16;;;0.41;81.71
22181;BME280;11256;50.830;12.834;2023-01-26T20:54:45;97968.88;;;0.40;82.04
22181;BME280;11256;50.830;12.834;2023-01-26T20:59:45;97957.19;;;0.34;81.96
22181;BME280;11256;50.830;12.834;2023-01-26T21:04:46;97969.91;;;0.39;82.00
22181;BME280;11256;50.830;12.834;2023-01-26T21:09:46;97969.06;;;0.32;81.85
22181;BME280;11256;50.830;12.834;2023-01-26T21:14:47;97978.91;;;0.38;81.49
22181;BME280;11256;50.830;12.834;2023-01-26T21:19:47;97972.56;;;0.39;81.77
22181;BME280;11256;50.830;12.834;2023-01-26T21:24:47;97979.53;;;0.40;81.33
22181;BME280;11256;50.830;12.834;2023-01-26T21:29:48;97969.06;;;0.38;81.67
22181;BME280;11256;50.830;12.834;2023-01-26T21:34:49;97953.31;;;0.30;81.25
22181;BME280;11256;50.830;12.834;2023-01-26T21:39:49;97966.59;;;0.37;81.63
22181;BME280;11256;50.830;12.834;2023-01-26T21:44:49;97962.75;;;0.33;81.26
22181;BME280;11256;50.830;12.834;2023-01-26T21:50:09;97949.81;;;0.30;81.19
22181;BME280;11256;50.830;12.834;2023-01-26T21:55:09;97943.28;;;0.26;81.25
22181;BME280;11256;50.830;12.834;2023-01-26T22:00:10;97965.81;;;0.30;81.01
22181;BME280;11256;50.830;12.834;2023-01-26T22:05:10;97941.63;;;0.25;81.19
22181;BME280;11256;50.830;12.834;2023-01-26T22:10:11;97969.50;;;0.29;81.14
22181;BME280;11256;50.830;12.834;2023-01-26T22:15:11;97965.63;;;0.25;81.49
22181;BME280;11256;50.830;12.834;2023-01-26T22:20:13;97968.28;;;0.25;80.82
22181;BME280;11256;50.830;12.834;2023-01-26T22:25:13;97971.16;;;0.23;81.48
22181;BME280;11256;50.830;12.834;2023-01-26T22:30:15;97953.53;;;0.22;81.09
22181;BME280;11256;50.830;12.834;2023-01-26T22:35:15;97963.38;;;0.22;81.10
22181;BME280;11256;50.830;12.834;2023-01-26T22:40:16;97957.22;;;0.15;81.29
22181;BME280;11256;50.830;12.834;2023-01-26T22:45:16;97949.69;;;0.12;81.28
22181;BME280;11256;50.830;12.834;2023-01-26T22:50:16;97962.16;;;0.18;81.19
22181;BME280;11256;50.830;12.834;2023-01-26T22:55:17;97966.25;;;0.20;81.40
22181;BME280;11256;50.830;12.834;2023-01-26T23:00:17;97971.97;;;0.24;81.11
22181;BME280;11256;50.830;12.834;2023-01-26T23:05:18;97967.25;;;0.26;81.38
22181;BME280;11256;50.830;12.834;2023-01-26T23:10:18;97951.91;;;0.21;81.29
22181;BME280;11256;50.830;12.834;2023-01-26T23:15:18;97944.50;;;0.23;80.74
22181;BME280;11256;50.830;12.834;2023-01-26T23:20:20;97958.03;;;0.28;80.77
22181;BME280;11256;50.830;12.834;2023-01-26T23:25:21;97951.91;;;0.15;81.22
22181;BME280;11256;50.830;12.834;2023-01-26T23:30:40;97953.13;;;0.19;80.96
22181;BME280;11256;50.830;12.834;2023-01-26T23:35:40;97952.53;;;0.17;80.99
22181;BME280;11256;50.830;12.834;2023-01-26T23:40:41;97956.44;;;0.14;80.65
22181;BME280;11256;50.830;12.834;2023-01-26T23:45:43;97949.03;;;0.10;81.06
22181;BME280;11256;50.830;12.834;2023-01-26T23:50:44;97950.72;;;0.04;80.90
22181;BME280;11256;50.830;12.834;2023-01-26T23:55:45;97962.16;;;0.11;81.29
